Date,TemperatureHighF,TemperatureAvgF,TemperatureLowF,DewpointHighF,DewpointAvgF,DewpointLowF,HumidityHigh,HumidityAvg,HumidityLow,PressureMaxIn,PressureMinIn,WindSpeedMaxMPH,WindSpeedAvgMPH,GustSpeedMaxMPH,PrecipitationSumIn
2013-1-1,33.0,31.2,26.0,31.0,27.6,20.0,97,87,73,0.00,40.00,7,4,190,0.06
2013-1-2,34.0,23.2,14.0,21.0,12.4,5.0,90,66,31,0.00,40.00,5,3,103,0.09
2013-1-3,35.0,23.3,10.0,23.0,14.9,7.0,88,72,46,0.00,40.00,11,4,18,0.02
2013-1-4,35.0,30.8,27.0,23.0,20.9,20.0,77,67,55,0.00,40.00,14,8,24,0.01
2013-1-5,41.0,30.0,16.0,27.0,21.7,14.0,91,72,51,0.00,40.00,7,4,121,0.01
2013-1-6,38.0,33.7,28.0,31.0,25.7,20.0,78,72,67,0.00,40.00,14,8,24,0.00
2013-1-7,41.0,28.6,16.0,25.0,21.2,14.0,91,75,53,0.00,40.00,7,3,13,0.00
2013-1-8,51.0,33.9,21.0,31.0,26.0,19.0,92,75,46,0.00,40.00,10,4,17,0.00
2013-1-9,55.0,43.8,30.0,45.0,36.9,29.0,96,78,50,0.00,40.00,9,4,169,0.09
2013-1-10,46.0,37.2,28.0,42.0,33.9,27.0,97,89,74,0.00,40.00,11,6,26,0.07
2013-1-11,63.0,55.3,46.0,54.0,49.1,43.0,96,80,57,0.00,40.00,12,8,27,0.58
2013-1-12,65.0,59.2,53.0,62.0,56.3,49.0,98,90,80,0.00,40.00,11,5,21,0.15
2013-1-13,66.0,50.3,31.0,61.0,48.3,25.0,98,93,79,0.00,40.00,17,8,35,1.30
2013-1-14,29.0,24.5,20.0,25.0,19.0,16.0,86,80,70,0.00,40.00,9,6,19,0.06
2013-1-15,31.0,26.4,21.0,23.0,20.2,17.0,86,78,67,0.00,40.00,10,7,17,0.00
2013-1-16,35.0,31.6,30.0,27.0,24.6,21.0,85,75,59,0.00,40.00,9,4,13,0.00
2013-1-17,45.0,33.4,27.0,30.0,24.3,14.0,91,70,45,0.00,40.00,10,5,159,0.00
2013-1-18,40.0,29.6,16.0,24.0,17.4,13.0,89,62,42,0.00,40.00,10,6,32,0.00
2013-1-19,54.0,45.0,37.0,27.0,24.6,23.0,59,46,31,0.00,40.00,15,11,28,0.00
2013-1-20,48.0,34.8,26.0,33.0,14.8,5.0,68,45,28,0.00,40.00,14,8,27,0.00
2013-1-21,26.0,20.8,12.0,15.0,6.1,-6.0,68,53,33,0.00,40.00,16,10,28,0.00
2013-1-22,19.0,11.7,4.0,-1.0,-5.2,-8.0,65,47,32,0.00,40.00,10,7,20,0.00
2013-1-23,29.0,17.7,7.0,11.0,3.4,-3.0,78,54,41,0.00,40.00,8,4,70,0.00
2013-1-24,25.0,20.5,14.0,13.0,0.5,-8.0,79,44,23,0.00,40.00,15,7,28,0.00
2013-1-25,26.0,22.4,20.0,19.0,11.9,0.0,85,65,40,0.00,40.00,10,6,122,0.00
2013-1-26,36.0,24.5,14.0,20.0,15.5,11.0,90,71,45,0.00,40.00,12,5,18,0.00
2013-1-27,41.0,29.5,19.0,38.0,21.4,14.0,96,73,49,0.00,40.00,8,6,12,0.21
2013-1-28,53.0,48.3,41.0,52.0,45.4,39.0,98,90,74,0.00,40.00,12,9,21,0.38
2013-1-29,64.0,58.4,53.0,57.0,53.4,50.0,92,84,79,0.00,40.00,17,9,29,0.01
2013-1-30,66.0,51.6,31.0,58.0,46.9,23.0,97,85,72,0.00,40.00,17,12,38,1.08
2013-1-31,30.0,26.2,18.0,22.0,17.0,7.0,89,69,52,0.00,40.00,18,13,33,0.03